Time;durP1;ratioP1;P1;durP2;ratioP2;P2;SDS_P1;SDS_P2;PMS_P1;PMS_P2;Temp;Humidity;BMP_temperature;BMP_pressure;BME280_temperature;BME280_humidity;BME280_pressure;Samples;Min_cycle;Max_cycle;Signal;HPM_P1;HPM_P2
2022/08/01 00:02:19;;;;;;;15.77;12.30;;;;;;;18.79;100.00;101474.16;5281802;28;20029;-72
2022/08/01 00:04:53;;;;;;;15.83;12.43;;;;;;;18.79;100.00;101479.47;5280643;28;20147;-74
2022/08/01 00:07:24;;;;;;;14.52;12.82;;;;;;;18.81;100.00;101471.47;5282393;28;20124;-73
2022/08/01 00:09:55;;;;;;;15.13;13.27;;;;;;;18.82;100.00;101475.81;5282792;28;20064;-73
2022/08/01 00:12:27;;;;;;;13.27;11.93;;;;;;;18.90;100.00;101476.44;5282367;28;20028;-73
2022/08/01 00:14:58;;;;;;;15.27;13.57;;;;;;;18.84;100.00;101474.03;5282698;28;20068;-73
2022/08/01 00:17:30;;;;;;;18.57;14.80;;;;;;;18.83;100.00;101475.78;5282816;28;20032;-73
2022/08/01 00:20:03;;;;;;;19.90;13.00;;;;;;;18.83;100.00;101481.06;5265452;28;20036;-73
2022/08/01 00:22:35;;;;;;;16.73;13.48;;;;;;;18.83;100.00;101481.06;5282454;28;20038;-73
2022/08/01 00:25:07;;;;;;;17.20;15.40;;;;;;;18.88;100.00;101478.28;5282645;28;20039;-74
2022/08/01 00:27:38;;;;;;;18.63;13.68;;;;;;;18.82;100.00;101479.34;5281840;28;20036;-74
2022/08/01 00:30:09;;;;;;;20.23;14.67;;;;;;;18.84;100.00;101488.09;5283044;28;20465;-74
2022/08/01 00:32:42;;;;;;;20.23;14.97;;;;;;;18.85;100.00;101484.56;5282615;28;20074;-74
2022/08/01 00:35:14;;;;;;;16.30;13.82;;;;;;;18.85;100.00;101486.31;5265038;28;20036;-74
2022/08/01 00:37:45;;;;;;;22.67;15.43;;;;;;;18.84;100.00;101479.31;5282638;28;20490;-74
2022/08/01 00:40:16;;;;;;;21.87;14.83;;;;;;;18.84;100.00;101487.25;5282438;28;20068;-74
2022/08/01 00:42:48;;;;;;;17.37;15.33;;;;;;;18.86;100.00;101485.41;5282531;28;20118;-74
2022/08/01 00:45:19;;;;;;;24.60;15.83;;;;;;;18.83;100.00;101491.63;5282417;28;20028;-73
2022/08/01 00:47:50;;;;;;;19.87;14.70;;;;;;;18.81;100.00;101484.69;5282655;28;20032;-74
2022/08/01 00:50:23;;;;;;;18.27;14.77;;;;;;;18.81;100.00;101482.03;5241254;28;1183054;-73
2022/08/01 00:52:56;;;;;;;22.95;15.90;;;;;;;18.79;100.00;101487.38;5283247;28;20125;-74
2022/08/01 00:55:28;;;;;;;17.35;14.75;;;;;;;18.76;100.00;101490.13;5265245;28;20077;-74
2022/08/01 00:58:00;;;;;;;24.17;16.23;;;;;;;18.80;100.00;101489.09;5282967;28;20534;-74
2022/08/01 01:00:33;;;;;;;21.23;15.47;;;;;;;18.80;100.00;101493.50;5283205;28;20024;-73
2022/08/01 01:03:04;;;;;;;22.38;16.73;;;;;;;18.73;100.00;101484.94;5282883;28;20025;-73
2022/08/01 01:05:56;;;;;;;24.07;17.63;;;;;;;18.74;100.00;101491.94;5282911;28;20032;-73
2022/08/01 01:08:36;;;;;;;27.38;18.08;;;;;;;18.67;100.00;101487.81;5266073;28;20048;-73
2022/08/01 01:11:21;;;;;;;28.20;17.83;;;;;;;18.71;100.00;101485.00;5283565;28;20028;-72
2022/08/01 01:14:01;;;;;;;29.25;17.35;;;;;;;18.67;100.00;101483.38;5282496;28;20064;-72
2022/08/01 01:16:33;;;;;;;25.38;18.75;;;;;;;18.69;100.00;101484.22;5287459;28;20035;-73
2022/08/01 01:19:11;;;;;;;23.92;17.83;;;;;;;18.70;100.00;101495.63;5289924;28;20133;-72
2022/08/01 01:21:42;;;;;;;27.77;18.65;;;;;;;18.69;100.00;101491.25;5283320;28;20025;-73
2022/08/01 01:24:16;;;;;;;24.90;19.07;;;;;;;18.64;100.00;101491.41;5282310;28;20032;-72
2022/08/01 01:27:16;;;;;;;29.13;19.70;;;;;;;18.63;100.00;101487.06;5281280;28;20418;-73
2022/08/01 01:29:57;;;;;;;22.58;18.23;;;;;;;18.64;100.00;101488.75;5281870;28;20032;-72
2022/08/01 01:32:35;;;;;;;24.23;17.73;;;;;;;18.62;100.00;101485.31;5282037;28;20036;-72
2022/08/01 01:35:10;;;;;;;28.20;18.05;;;;;;;18.61;100.00;101488.88;5282645;28;20104;-72
2022/08/01 01:37:44;;;;;;;24.17;17.75;;;;;;;18.55;100.00;101479.41;5281980;28;20025;-72
2022/08/01 01:40:17;;;;;;;17.90;15.63;;;;;;;18.57;100.00;101485.47;5264126;28;20158;-73
2022/08/01 01:42:50;;;;;;;23.08;14.57;;;;;;;18.56;100.00;101490.81;5281976;28;20024;-73
2022/08/01 01:45:24;;;;;;;19.25;14.77;;;;;;;18.52;100.00;101484.78;5282428;28;20032;-73
2022/08/01 01:47:57;;;;;;;20.38;14.93;;;;;;;18.53;100.00;101488.28;5281958;28;20033;-73
2022/08/01 01:50:29;;;;;;;16.92;14.02;;;;;;;18.55;100.00;101483.84;5282617;28;20471;-72
2022/08/01 01:53:03;;;;;;;22.35;15.75;;;;;;;18.49;100.00;101476.13;5282141;28;20387;-72
2022/08/01 01:55:36;;;;;;;22.05;13.95;;;;;;;18.52;100.00;101476.88;5281890;28;20032;-72
2022/08/01 01:58:11;;;;;;;15.57;13.85;;;;;;;18.47;100.00;101477.97;5282487;28;20033;-73
2022/08/01 02:00:44;;;;;;;18.48;14.35;;;;;;;18.39;100.00;101480.84;5282236;28;20566;-72
2022/08/01 02:03:18;;;;;;;16.00;14.23;;;;;;;18.40;100.00;101483.44;5286468;28;20033;-72
2022/08/01 02:05:52;;;;;;;17.33;13.30;;;;;;;18.39;100.00;101480.84;5283467;28;20037;-73
2022/08/01 02:08:25;;;;;;;17.92;13.48;;;;;;;18.39;100.00;101483.50;5282095;28;20036;-73
2022/08/01 02:14:09;;;;;;;17.52;13.10;;;;;;;18.43;100.00;101482.47;5282389;28;20131;-74
2022/08/01 02:16:46;;;;;;;19.02;13.63;;;;;;;18.41;100.00;101479.88;5282335;28;20036;-72
2022/08/01 02:19:19;;;;;;;25.85;14.68;;;;;;;18.39;100.00;101479.06;5282619;28;20524;-72
2022/08/01 02:21:55;;;;;;;24.85;13.95;;;;;;;18.41;100.00;101479.03;5281835;28;20116;-72
2022/08/01 02:24:42;;;;;;;19.23;15.20;;;;;;;18.42;100.00;101483.41;5282233;28;20371;-73
2022/08/01 02:27:17;;;;;;;17.00;13.50;;;;;;;18.43;100.00;101486.88;5282897;28;20032;-73
2022/08/01 02:29:54;;;;;;;15.68;13.45;;;;;;;18.37;100.00;101480.03;5285491;28;20155;-72
2022/08/01 02:32:31;;;;;;;22.85;14.07;;;;;;;18.38;100.00;101485.25;5285311;28;20090;-72
2022/08/01 02:35:07;;;;;;;21.15;14.52;;;;;;;18.37;100.00;101482.66;5285425;28;20082;-72
2022/08/01 02:37:39;;;;;;;16.17;14.25;;;;;;;18.34;100.00;101488.06;5285247;28;20348;-72
2022/08/01 02:40:13;;;;;;;16.05;13.27;;;;;;;18.33;100.00;101484.56;5285405;28;20082;-73
2022/08/01 02:42:49;;;;;;;18.52;14.35;;;;;;;18.36;100.00;101488.88;5285620;28;20427;-74
2022/08/01 02:45:24;;;;;;;18.20;14.93;;;;;;;18.37;100.00;101486.19;5285559;28;20460;-72
2022/08/01 02:48:09;;;;;;;17.55;13.70;;;;;;;18.36;100.00;101486.25;5287371;28;20036;-72
2022/08/01 02:50:44;;;;;;;18.00;15.10;;;;;;;18.38;100.00;101489.69;5287717;28;20045;-72
2022/08/01 02:53:19;;;;;;;21.15;14.90;;;;;;;18.36;100.00;101483.59;5285112;28;20040;-73
2022/08/01 02:55:53;;;;;;;19.85;14.57;;;;;;;18.36;100.00;101486.25;5285217;28;20031;-72
2022/08/01 02:58:26;;;;;;;18.27;15.05;;;;;;;18.38;100.00;101482.63;5285462;28;20025;-72
2022/08/01 03:00:58;;;;;;;20.75;16.10;;;;;;;18.34;100.00;101483.66;5284718;28;20032;-73
2022/08/01 03:03:30;;;;;;;;;;;;;;;18.48;100.00;101490.22;5285283;28;20043;-73
2022/08/01 03:06:02;;;;;;;18.75;14.30;;;;;;;18.37;100.00;101488.81;5284699;28;19916;-72
2022/08/01 03:08:36;;;;;;;23.27;15.02;;;;;;;18.39;100.00;101488.78;5284607;28;20039;-72
2022/08/01 03:11:08;;;;;;;19.73;16.05;;;;;;;18.36;100.00;101495.00;5284976;28;20107;-73
2022/08/01 03:13:43;;;;;;;18.92;15.00;;;;;;;18.33;100.00;101488.97;5284526;28;20368;-74
2022/08/01 03:16:16;;;;;;;24.38;15.98;;;;;;;18.33;100.00;101491.63;5266384;28;20066;-73
2022/08/01 03:18:48;;;;;;;20.95;16.35;;;;;;;18.31;100.00;101486.38;5284611;28;20043;-73
2022/08/01 03:21:22;;;;;;;22.17;16.73;;;;;;;18.35;100.00;101488.03;5284564;28;20024;-73
2022/08/01 03:23:57;;;;;;;18.85;15.90;;;;;;;18.29;100.00;101489.97;5285084;28;20033;-73
2022/08/01 03:26:31;;;;;;;22.35;18.02;;;;;;;18.34;100.00;101496.00;5284634;28;20349;-73
2022/08/01 03:29:09;;;;;;;21.35;16.58;;;;;;;18.29;100.00;101495.25;5284759;28;20028;-73
2022/08/01 03:31:44;;;;;;;22.25;18.38;;;;;;;18.30;100.00;101491.72;5284655;28;20074;-73
2022/08/01 03:34:16;;;;;;;21.38;17.35;;;;;;;18.28;100.00;101493.56;5285081;28;20028;-73
2022/08/01 03:36:51;;;;;;;22.80;16.48;;;;;;;18.28;100.00;101490.91;5284098;28;20106;-73
2022/08/01 03:39:28;;;;;;;22.20;17.95;;;;;;;18.27;100.00;101492.66;5283285;28;20021;-73
2022/08/01 03:42:05;;;;;;;22.13;17.45;;;;;;;18.25;100.00;101494.50;5266436;28;20036;-73
2022/08/01 03:44:39;;;;;;;19.70;17.60;;;;;;;18.27;100.00;101497.94;5284477;28;20074;-73
2022/08/01 03:47:11;;;;;;;21.80;17.63;;;;;;;18.34;100.00;101496.00;5283880;28;20089;-73
2022/08/01 03:49:46;;;;;;;27.13;18.98;;;;;;;18.30;100.00;101491.72;5283620;28;20134;-73
2022/08/01 03:52:20;;;;;;;23.92;18.88;;;;;;;18.26;100.00;101501.53;5284020;28;20107;-73
2022/08/01 03:54:55;;;;;;;25.02;18.83;;;;;;;18.23;100.00;101497.19;5283470;28;20040;-73
2022/08/01 03:57:29;;;;;;;22.25;18.50;;;;;;;18.25;100.00;101493.66;5283933;28;20035;-73
2022/08/01 04:00:01;;;;;;;24.77;18.90;;;;;;;18.23;100.00;101489.28;5283633;28;20033;-73
2022/08/01 04:02:33;;;;;;;22.65;18.65;;;;;;;18.23;100.00;101493.72;5283886;28;20464;-74
2022/08/01 04:05:05;;;;;;;22.23;18.27;;;;;;;18.26;100.00;101495.38;5283482;28;20032;-74
2022/08/01 04:07:38;;;;;;;26.27;19.00;;;;;;;18.22;100.00;101487.59;5283669;28;20020;-73
2022/08/01 04:10:11;;;;;;;21.83;17.83;;;;;;;18.25;100.00;101498.94;5283920;28;20470;-72
2022/08/01 04:12:42;;;;;;;22.80;18.17;;;;;;;18.25;100.00;101501.56;5283713;28;20365;-73
2022/08/01 04:15:14;;;;;;;22.47;18.30;;;;;;;18.23;100.00;101501.63;5283754;28;20032;-73
2022/08/01 04:17:46;;;;;;;21.00;17.47;;;;;;;18.25;100.00;101504.22;5290567;28;20032;-72
2022/08/01 04:20:17;;;;;;;22.27;17.95;;;;;;;18.29;100.00;101504.06;5290513;28;20028;-73
2022/08/01 04:22:49;;;;;;;20.83;17.17;;;;;;;18.25;100.00;101502.44;5283565;28;20123;-72
2022/08/01 04:25:28;;;;;;;22.27;17.33;;;;;;;18.31;100.00;101509.28;5283691;28;20033;-74
2022/08/01 04:28:03;;;;;;;20.17;16.85;;;;;;;18.24;100.00;101513.91;5283509;28;20032;-75
2022/08/01 04:30:37;;;;;;;23.48;18.58;;;;;;;18.29;100.00;101508.47;5283595;28;20456;-75
2022/08/01 04:33:11;;;;;;;21.73;18.15;;;;;;;18.27;100.00;101511.16;5283140;28;20055;-75
2022/08/01 04:35:46;;;;;;;25.35;17.17;;;;;;;18.24;100.00;101511.28;5283545;28;20028;-74
2022/08/01 04:38:21;;;;;;;25.10;18.13;;;;;;;18.23;100.00;101509.53;5283590;28;20033;-76
2022/08/01 04:40:54;;;;;;;23.73;17.67;;;;;;;18.18;100.00;101512.34;5283135;28;20032;-77
2022/08/01 04:43:25;;;;;;;22.70;18.55;;;;;;;18.16;100.00;101518.56;5283010;28;20028;-77
2022/08/01 04:45:58;;;;;;;27.97;17.90;;;;;;;18.20;100.00;101518.41;5283192;28;20028;-78
2022/08/01 04:48:29;;;;;;;;;;;;;;;18.34;100.00;101522.38;5283026;28;20046;-77
2022/08/01 04:51:01;;;;;;;24.83;17.90;;;;;;;18.23;100.00;101520.09;5283177;28;20408;-76
2022/08/01 04:53:32;;;;;;;27.27;19.10;;;;;;;18.21;100.00;101529.84;5283321;28;20042;-76
2022/08/01 04:56:04;;;;;;;25.63;18.90;;;;;;;18.30;100.00;101537.44;5284541;28;20032;-77
2022/08/01 04:58:35;;;;;;;21.27;17.03;;;;;;;18.36;100.00;101536.38;5287003;28;20028;-77
2022/08/01 05:01:07;;;;;;;20.43;17.20;;;;;;;18.39;100.00;101538.94;5286048;28;20028;-77
2022/08/01 05:03:39;;;;;;;22.90;17.30;;;;;;;18.34;100.00;101543.50;5295229;28;20040;-77
2022/08/01 05:06:11;;;;;;;22.75;16.50;;;;;;;18.37;100.00;101540.72;5291027;28;20051;-78
2022/08/01 05:08:42;;;;;;;25.23;18.63;;;;;;;18.31;100.00;101541.81;5283516;28;20059;-77
2022/08/01 05:11:13;;;;;;;22.00;17.30;;;;;;;18.29;100.00;101556.84;5283367;28;20488;-76
2022/08/01 05:13:45;;;;;;;20.87;17.07;;;;;;;18.38;100.00;101551.25;5283103;28;20039;-77
2022/08/01 05:16:16;;;;;;;22.40;17.37;;;;;;;18.50;100.00;101552.63;5282957;28;20032;-77
2022/08/01 05:18:48;;;;;;;20.65;15.70;;;;;;;18.62;100.00;101550.47;5282965;28;20032;-78
2022/08/01 05:21:19;;;;;;;21.17;15.50;;;;;;;18.62;100.00;101551.34;5282401;28;20040;-77
2022/08/01 05:23:50;;;;;;;17.07;13.30;;;;;;;18.55;100.00;101550.69;5264938;28;20042;-77
2022/08/01 05:26:22;;;;;;;17.90;14.10;;;;;;;18.57;100.00;101554.13;5282940;28;20087;-78
2022/08/01 05:28:54;;;;;;;17.23;14.30;;;;;;;18.56;100.00;101554.19;5283457;28;20028;-77
2022/08/01 05:31:27;;;;;;;18.87;14.37;;;;;;;18.62;100.00;101556.63;5282347;28;20039;-77
2022/08/01 05:33:58;;;;;;;18.10;13.98;;;;;;;18.66;100.00;101557.38;5282916;28;20032;-78
2022/08/01 05:36:30;;;;;;;16.00;12.37;;;;;;;18.58;100.00;101558.50;5282712;28;20032;-78
2022/08/01 05:39:01;;;;;;;15.50;12.93;;;;;;;18.58;100.00;101553.22;5264734;28;20041;-78
2022/08/01 05:41:33;;;;;;;18.03;10.93;;;;;;;18.56;100.00;101556.81;5282775;28;20411;-77
2022/08/01 05:44:05;;;;;;;14.90;11.00;;;;;;;18.57;100.00;101548.84;5282993;28;20028;-78
2022/08/01 05:46:37;;;;;;;14.65;10.07;;;;;;;18.69;100.00;101552.88;5265551;28;20076;-79
2022/08/01 05:49:08;;;;;;;13.00;10.10;;;;;;;18.65;100.00;101553.03;5294878;28;20444;-78
2022/08/01 05:51:39;;;;;;;11.93;9.37;;;;;;;18.61;100.00;101556.66;5290503;28;20133;-78
2022/08/01 05:54:11;;;;;;;17.10;10.97;;;;;;;18.68;100.00;101556.41;5283050;28;20033;-78
2022/08/01 05:56:42;;;;;;;12.67;9.90;;;;;;;18.71;100.00;101561.59;5282738;28;20471;-78
2022/08/01 05:59:13;;;;;;;12.67;9.27;;;;;;;18.77;100.00;101560.50;5282173;28;20024;-78
2022/08/01 06:01:45;;;;;;;13.83;9.97;;;;;;;18.76;99.81;101559.66;5264708;28;20052;-78
2022/08/01 06:04:16;;;;;;;12.53;10.10;;;;;;;18.85;100.00;101560.28;5286480;28;20039;-79
2022/08/01 06:06:48;;;;;;;12.33;9.50;;;;;;;18.93;99.35;101568.78;5286861;28;20035;-79
2022/08/01 06:09:19;;;;;;;9.80;8.13;;;;;;;19.05;98.27;101568.38;5286521;28;20042;-78
2022/08/01 06:11:50;;;;;;;10.00;8.57;;;;;;;19.09;97.95;101570.00;5286773;28;20028;-78
2022/08/01 06:14:22;;;;;;;12.27;8.30;;;;;;;19.05;96.39;101565.72;5286210;28;20530;-79
2022/08/01 06:16:53;;;;;;;12.43;9.23;;;;;;;19.16;97.71;101567.09;5285943;28;20035;-79
2022/08/01 06:19:26;;;;;;;8.60;6.93;;;;;;;19.10;95.03;101568.19;5286338;28;20029;-79
2022/08/01 06:21:57;;;;;;;9.98;7.38;;;;;;;19.31;95.79;101569.19;5285771;28;20057;-79
2022/08/01 06:24:28;;;;;;;9.33;6.70;;;;;;;19.44;93.72;101577.53;5285949;28;20064;-79
2022/08/01 06:27:00;;;;;;;8.30;6.40;;;;;;;19.57;93.77;101573.50;5285330;28;20056;-79
2022/08/01 06:29:32;;;;;;;9.07;6.57;;;;;;;19.52;92.66;101567.53;5285545;28;20052;-78
2022/08/01 06:32:04;;;;;;;7.65;6.30;;;;;;;19.50;93.97;101578.16;5285920;28;20024;-79
2022/08/01 06:34:35;;;;;;;7.97;6.20;;;;;;;19.51;93.80;101579.00;5286182;28;20076;-79
2022/08/01 06:37:07;;;;;;;8.77;5.00;;;;;;;19.61;92.67;101580.41;5285779;28;20052;-80
2022/08/01 06:39:38;;;;;;;6.70;5.33;;;;;;;19.76;91.76;101583.44;5285779;28;20116;-79
2022/08/01 06:42:09;;;;;;;6.63;4.83;;;;;;;19.91;91.96;101582.81;5285395;28;20024;-79
2022/08/01 06:44:41;;;;;;;6.10;4.80;;;;;;;19.95;89.16;101591.50;5285955;28;20036;-79
2022/08/01 06:47:12;;;;;;;6.20;4.45;;;;;;;20.04;88.35;101591.13;5285921;28;20033;-79
2022/08/01 06:49:44;;;;;;;5.93;4.03;;;;;;;20.20;88.70;101583.44;5285426;28;20052;-79
2022/08/01 06:52:15;;;;;;;5.70;4.43;;;;;;;20.22;87.68;101586.88;5285332;28;20074;-79
2022/08/01 06:54:47;;;;;;;5.10;4.53;;;;;;;20.07;87.69;101604.25;5285258;28;20037;-79
2022/08/01 06:57:18;;;;;;;6.20;4.60;;;;;;;20.08;88.62;101599.84;5267720;28;20348;-80
2022/08/01 06:59:50;;;;;;;6.18;4.75;;;;;;;20.33;89.87;101603.19;5285313;28;20376;-79
2022/08/01 07:02:23;;;;;;;5.93;4.57;;;;;;;20.26;88.23;101599.06;5285328;28;20071;-79
2022/08/01 07:04:54;;;;;;;6.95;4.40;;;;;;;20.22;88.66;101594.81;5285795;28;20025;-80
2022/08/01 07:07:27;;;;;;;3.47;3.10;;;;;;;20.19;85.26;101597.63;5285654;28;20024;-80
2022/08/01 07:09:58;;;;;;;4.32;2.70;;;;;;;20.31;85.13;101597.09;5285181;28;20024;-79
2022/08/01 07:12:29;;;;;;;5.17;3.30;;;;;;;20.58;86.25;101594.25;5284848;28;20039;-80
2022/08/01 07:15:01;;;;;;;3.87;2.97;;;;;;;20.61;83.90;101601.19;5285251;28;20036;-80
2022/08/01 07:17:32;;;;;;;4.27;2.33;;;;;;;20.54;84.29;101597.94;5285364;28;20465;-80
2022/08/01 07:20:05;;;;;;;6.07;3.10;;;;;;;20.78;84.21;101590.78;5286284;28;20028;-79
2022/08/01 07:22:37;;;;;;;4.03;2.67;;;;;;;20.85;83.40;101591.38;5273371;28;20468;-80
2022/08/01 07:25:09;;;;;;;4.32;2.78;;;;;;;21.10;84.60;101599.13;5299016;28;20082;-80
2022/08/01 07:27:40;;;;;;;2.93;2.50;;;;;;;21.30;82.48;101600.91;5289781;28;20411;-81
2022/08/01 07:30:12;;;;;;;3.33;2.13;;;;;;;21.55;79.49;101600.66;5285153;28;20476;-80
2022/08/01 07:32:44;;;;;;;2.92;2.20;;;;;;;21.68;78.51;101608.91;5284181;28;20036;-81
2022/08/01 07:35:15;;;;;;;5.10;2.07;;;;;;;21.78;79.60;101604.03;5284630;28;20468;-81
2022/08/01 07:37:47;;;;;;;5.37;2.23;;;;;;;21.44;77.57;101602.91;5284946;28;20032;-80
2022/08/01 07:40:19;;;;;;;2.72;2.13;;;;;;;21.22;78.40;101600.34;5266731;28;20074;-81
2022/08/01 07:42:51;;;;;;;4.38;2.20;;;;;;;20.92;78.45;101608.75;5283962;28;20382;-81
2022/08/01 07:45:22;;;;;;;3.77;2.20;;;;;;;20.82;79.72;101607.41;5284341;28;20036;-80
2022/08/01 07:47:54;;;;;;;3.92;2.78;;;;;;;20.84;81.73;101605.56;5284548;28;20035;-80
2022/08/01 07:50:25;;;;;;;3.57;2.40;;;;;;;20.93;81.00;101610.47;5284537;28;20134;-80
2022/08/01 07:52:57;;;;;;;2.57;2.00;;;;;;;21.05;82.17;101611.72;5284194;28;20035;-80
2022/08/01 07:55:29;;;;;;;4.03;2.20;;;;;;;21.44;82.37;101613.53;5284454;28;20566;-81
2022/08/01 07:58:00;;;;;;;4.20;2.53;;;;;;;21.91;79.39;101614.94;5284136;28;20032;-80
2022/08/01 08:00:31;;;;;;;2.27;2.03;;;;;;;22.11;74.95;101616.66;5284135;28;20350;-80
2022/08/01 08:03:03;;;;;;;2.67;1.87;;;;;;;22.17;75.02;101617.22;5284067;28;20115;-81
2022/08/01 08:05:35;;;;;;;1.85;1.70;;;;;;;21.98;73.61;101613.72;5284364;28;20037;-80
2022/08/01 08:08:08;;;;;;;2.95;1.92;;;;;;;22.12;74.29;101613.94;5285790;28;20048;-80
2022/08/01 08:10:39;;;;;;;3.22;2.35;;;;;;;22.21;73.61;101607.28;5283621;28;20368;-80
2022/08/01 08:13:11;;;;;;;2.50;1.93;;;;;;;22.39;73.23;101619.72;5283570;28;20073;-80
2022/08/01 08:15:42;;;;;;;3.53;2.50;;;;;;;22.73;74.19;101617.16;5283864;28;20044;-81
2022/08/01 08:18:13;;;;;;;4.20;2.50;;;;;;;22.33;73.29;101627.09;5283917;28;20032;-80
2022/08/01 08:20:45;;;;;;;3.10;2.80;;;;;;;22.24;75.09;101622.25;5284008;28;20040;-80
2022/08/01 08:26:06;;;;;;;3.20;2.10;;;;;;;22.39;72.20;101621.50;5283150;28;20048;-80
2022/08/01 08:28:37;;;;;;;2.37;2.00;;;;;;;22.56;70.95;101629.50;5283223;28;20111;-80
2022/08/01 08:31:09;;;;;;;2.83;2.33;;;;;;;22.54;70.81;101634.03;5265274;28;20037;-80
2022/08/01 08:33:40;;;;;;;1.93;1.70;;;;;;;22.53;70.03;101623.47;5282995;28;20035;-80
2022/08/01 08:36:14;;;;;;;2.10;1.90;;;;;;;22.49;70.15;101627.22;5282613;28;20028;-80
2022/08/01 08:38:45;;;;;;;2.53;1.75;;;;;;;22.62;71.32;101622.16;5282904;28;20104;-80
2022/08/01 08:41:17;;;;;;;4.00;1.50;;;;;;;22.57;66.05;101619.72;5282946;28;20617;-80
2022/08/01 08:43:48;;;;;;;2.50;1.92;;;;;;;22.53;68.92;101616.38;5282844;28;20109;-80
2022/08/01 08:46:20;;;;;;;2.27;1.63;;;;;;;22.84;65.27;101621.94;5282838;28;20024;-80
2022/08/01 08:48:52;;;;;;;1.50;1.40;;;;;;;23.24;68.71;101619.88;5282877;28;20040;-80
2022/08/01 08:51:26;;;;;;;2.45;1.55;;;;;;;23.38;66.37;101625.34;5283021;28;20057;-80
2022/08/01 08:53:58;;;;;;;3.30;1.52;;;;;;;23.44;67.22;101624.13;5282369;28;20174;-80
2022/08/01 08:56:33;;;;;;;1.50;1.38;;;;;;;23.17;66.05;101619.34;5282695;28;20470;-80
2022/08/01 08:59:05;;;;;;;1.40;1.30;;;;;;;23.05;65.86;101612.84;5282437;28;20039;-80
2022/08/01 09:01:36;;;;;;;1.87;1.30;;;;;;;23.07;64.68;101623.38;5282721;28;20435;-80
2022/08/01 09:04:08;;;;;;;2.87;1.50;;;;;;;;;;5282972;28;20050;-80
2022/08/01 09:06:40;;;;;;;8.37;1.80;;;;;;;23.19;66.10;101621.94;5283156;28;20190;-79
2022/08/01 09:09:11;;;;;;;3.85;1.40;;;;;;;23.05;65.93;101626.13;5282611;28;20040;-79
2022/08/01 09:11:43;;;;;;;1.30;1.20;;;;;;;23.11;65.27;101628.50;5282258;28;20024;-79
2022/08/01 09:14:23;;;;;;;2.03;1.50;;;;;;;23.57;64.39;101632.31;5282532;28;20073;-79
2022/08/01 09:17:08;;;;;;;1.88;1.20;;;;;;;24.28;66.55;101639.94;5282708;28;20021;-79
2022/08/01 09:19:47;;;;;;;1.83;1.20;;;;;;;24.28;62.59;101642.63;5283008;28;20486;-79
2022/08/01 09:22:24;;;;;;;2.30;1.45;;;;;;;23.78;62.67;101646.25;5282364;28;20024;-79
2022/08/01 09:25:08;;;;;;;1.35;1.10;;;;;;;23.51;62.31;101638.84;5282899;28;20092;-78
2022/08/01 09:27:39;;;;;;;1.55;1.10;;;;;;;22.98;63.73;101634.53;5265088;28;20056;-78
2022/08/01 09:30:15;;;;;;;1.70;1.20;;;;;;;23.28;67.03;101642.72;5282092;28;20063;-79
2022/08/01 09:33:01;;;;;;;0.80;0.80;;;;;;;24.28;62.64;101645.28;5282645;28;20033;-79
2022/08/01 09:35:37;;;;;;;1.50;0.80;;;;;;;24.74;63.55;101637.28;5282739;28;20021;-80
2022/08/01 09:38:26;;;;;;;1.25;1.10;;;;;;;24.96;60.85;101644.03;5285338;28;20035;-78
2022/08/01 09:41:00;;;;;;;2.33;1.02;;;;;;;24.99;58.83;101643.84;5286479;28;20474;-78
2022/08/01 09:43:31;;;;;;;1.02;0.73;;;;;;;25.22;57.60;101634.44;5268762;28;20032;-78
2022/08/01 09:46:13;;;;;;;1.90;1.00;;;;;;;25.19;56.67;101639.97;5286395;28;20031;-76
2022/08/01 09:48:57;;;;;;;1.40;0.93;;;;;;;25.04;57.85;101647.09;5286777;28;20081;-78
2022/08/01 09:51:30;;;;;;;1.60;1.10;;;;;;;25.01;55.78;101639.25;5286604;28;20037;-78
2022/08/01 09:54:04;;;;;;;1.90;1.20;;;;;;;25.77;55.69;101640.84;5286061;28;20542;-78
2022/08/01 09:56:45;;;;;;;1.00;1.00;;;;;;;26.16;53.22;101647.28;5285992;28;20094;-77
2022/08/01 09:59:16;;;;;;;1.63;1.00;;;;;;;25.81;54.85;101649.53;5286754;28;20032;-77
2022/08/01 10:01:49;;;;;;;1.48;1.05;;;;;;;25.40;53.22;101645.81;5286470;28;20529;-78
2022/08/01 10:04:24;;;;;;;1.40;1.02;;;;;;;25.11;54.23;101644.91;5285656;28;20356;-77
2022/08/01 10:07:05;;;;;;;1.42;0.95;;;;;;;25.19;56.11;101639.09;5285734;28;20055;-78
2022/08/01 10:09:39;;;;;;;1.42;1.30;;;;;;;27.04;51.40;101644.13;5286005;28;20031;-78
2022/08/01 10:12:13;;;;;;;1.77;0.98;;;;;;;28.19;46.18;101651.19;5268580;28;20036;-78
2022/08/01 10:14:49;;;;;;;1.13;1.00;;;;;;;29.01;47.57;101653.13;5285516;28;20021;-78
2022/08/01 10:17:23;;;;;;;1.23;1.10;;;;;;;28.11;44.96;101645.53;5285716;28;20092;-78
2022/08/01 10:19:55;;;;;;;1.70;1.10;;;;;;;28.24;47.81;101653.53;5285552;28;20032;-78
2022/08/01 10:22:27;;;;;;;;;;;;;;;30.87;43.29;101652.47;5285973;28;20029;-76
2022/08/01 10:25:02;;;;;;;2.07;1.20;;;;;;;30.41;43.58;101656.38;5285318;28;19919;-77
2022/08/01 10:27:37;;;;;;;5.93;1.75;;;;;;;30.80;41.26;101645.91;5285398;28;20055;-77
2022/08/01 10:30:09;;;;;;;2.38;1.55;;;;;;;30.01;43.37;101649.72;5285427;28;20032;-78
2022/08/01 10:32:42;;;;;;;1.73;1.58;;;;;;;29.18;45.13;101657.19;5267640;28;20025;-78
2022/08/01 10:35:17;;;;;;;1.75;1.60;;;;;;;27.86;48.04;101659.81;5285681;28;20032;-77
2022/08/01 10:37:50;;;;;;;1.83;1.60;;;;;;;26.13;51.61;101660.84;5285241;28;20050;-76
2022/08/01 10:40:22;;;;;;;2.17;1.50;;;;;;;26.35;54.69;101665.63;5284985;28;20146;-77
2022/08/01 10:42:54;;;;;;;;;;;;;;;28.46;47.83;101665.31;5285640;28;20388;-76
2022/08/01 10:45:26;;;;;;;2.20;1.40;;;;;;;28.99;47.13;101656.88;5285332;28;19916;-77
2022/08/01 10:48:24;;;;;;;2.15;1.80;;;;;;;30.09;46.33;101651.78;5284621;28;20035;-77
2022/08/01 10:51:00;;;;;;;3.17;2.08;;;;;;;29.57;44.66;101654.16;5285242;28;20051;-78
2022/08/01 10:53:32;;;;;;;1.92;1.63;;;;;;;29.87;44.47;101653.56;5285045;28;20112;-78
2022/08/01 10:56:05;;;;;;;3.22;1.65;;;;;;;29.74;46.45;101659.03;5285685;28;20028;-78
2022/08/01 10:58:40;;;;;;;2.30;1.35;;;;;;;29.73;43.93;101660.00;5285038;28;20029;-79
2022/08/01 11:01:14;;;;;;;3.15;1.40;;;;;;;28.86;46.45;101663.19;5284944;28;20044;-77
2022/08/01 11:04:10;;;;;;;2.35;1.20;;;;;;;29.53;47.35;101658.94;5284698;28;20376;-77
2022/08/01 11:07:06;;;;;;;3.58;1.17;;;;;;;30.11;45.05;101676.72;5267351;28;20127;-78
2022/08/01 11:09:42;;;;;;;1.67;1.45;;;;;;;30.31;43.49;101680.44;5266915;28;20124;-77
2022/08/01 11:12:16;;;;;;;1.50;1.40;;;;;;;28.88;46.00;101685.41;5284520;28;20060;-77
2022/08/01 11:15:00;;;;;;;2.03;1.60;;;;;;;29.25;45.60;101687.09;5284525;28;20039;-77
2022/08/01 11:17:35;;;;;;;4.13;1.40;;;;;;;29.11;45.79;101685.47;5284311;28;20032;-78
2022/08/01 11:20:10;;;;;;;3.15;1.75;;;;;;;28.19;47.02;101682.47;5284268;28;20073;-77
2022/08/01 11:23:00;;;;;;;1.77;1.35;;;;;;;27.88;48.04;101694.56;5284290;28;20073;-78
2022/08/01 11:25:37;;;;;;;2.47;1.33;;;;;;;28.26;48.92;101690.94;5284316;28;20025;-78
2022/08/01 11:28:17;;;;;;;2.15;1.38;;;;;;;28.24;47.58;101695.53;5284299;28;20066;-78
2022/08/01 11:30:54;;;;;;;2.22;1.20;;;;;;;29.31;45.96;101693.81;5284275;28;20024;-78
2022/08/01 11:33:47;;;;;;;2.30;1.20;;;;;;;30.58;41.92;101700.69;5284193;28;20071;-78
2022/08/01 11:36:22;;;;;;;1.73;1.10;;;;;;;31.19;39.18;101703.59;5284434;28;20351;-77
2022/08/01 11:38:59;;;;;;;1.73;0.98;;;;;;;29.93;40.93;101693.38;5283972;28;20066;-77
2022/08/01 11:41:33;;;;;;;2.05;1.13;;;;;;;30.07;41.11;101694.94;5284005;28;20028;-77
2022/08/01 11:44:10;;;;;;;2.70;1.50;;;;;;;30.62;38.95;101694.91;5283917;28;20044;-77
2022/08/01 11:47:04;;;;;;;1.52;1.23;;;;;;;32.51;38.17;101700.97;5283962;28;20081;-77
2022/08/01 11:49:44;;;;;;;1.73;1.13;;;;;;;32.20;36.30;101695.69;5283570;28;20340;-78
2022/08/01 11:52:18;;;;;;;4.43;1.48;;;;;;;33.60;35.06;101697.94;5284544;28;20072;-78